Historyczne dane pomiarowe

Dodano dane terminowe – wersja testowa.

Dane z okresu 1951-2019

Wersja bazy: 1.34 [2019-03-16, lista zmian], aktualizacja planowana na 2019-04-15

Dane meteo z obszaru Polski uzyskane na podstawie danych udostępnionych przez Instytut Meteorologii i Gospodarki Wodnej – Państwowy Instytut Badawczy.

 

Wybierz Datę:    

       

TemperaturaWilgotnośćWiatrCiśnienieOpadyŚniegCzas trwania zjawisk
 Stacja t tx tn tng RH VA  wxwx mslp ppp RRR   cm mm wxwxwxwxwxwxwx
1983-08-14 14.2 16.2 11.1--- 3.7 3.3---- 0.7------------
1983-08-13 14.4 19.2 11.4--- 5.0 2.0---- 5.0------------
1983-08-12 20.0 24.5 15.9--- 2.3 0.3---- 13.4------------
1983-08-11 18.2 20.1 14.7--- 7.0 0.3---- 7.9------------
1983-08-10 18.9 23.0 11.7--- 6.7 0.3---- 2.8------------
1983-08-09 17.9 24.6 12.1--- 7.0 2.0---- 7.8------------
1983-08-08 17.1 21.8 13.6--- 7.3 1.7---- 4.0------------
1983-08-07 18.0 22.3 14.0--- 6.3 0.3---- 8.5------------
1983-08-06 17.3 20.5 9.7--- 6.7 2.7---- 0.0------------
1983-08-05 13.4 15.5 9.4--- 5.0 2.0---- 0.0------------
1983-08-04 12.3 21.8 11.6--- 8.0 1.0---- 5.2------------
1983-08-03 21.5 25.5 17.4--- 4.7 1.3---- 12.2------------
1983-08-02 23.0 29.5 12.6--- 2.3 0.3---- 0.7------------
1983-08-01 21.3 26.7 8.8--- 0.0 2.3---- 0.0------------
1983-07-31 16.5 22.0 11.9--- 3.7 1.0---- 0.0------------
1983-07-30 17.5 21.5 13.2--- 5.0 1.7---- 0.5------------
1983-07-29 19.6 23.8 13.6--- 2.7 3.3---- 0.8------------
1983-07-28 21.3 26.4 16.4--- 3.7 3.0---- 0.0------------
1983-07-27 21.9 28.4 15.0--- 1.7 1.7---- 0.0------------
1983-07-26 19.6 25.1 14.7--- 3.3 3.0---- 0.0------------
1983-07-25 14.4 18.6 9.7--- 7.0 2.0---- 0.0------------
1983-07-24 15.1 17.2 13.9--- 7.7 0.3---- 4.4------------
1983-07-23 15.8 20.0 12.6--- 7.0 3.7---- 6.8------------
1983-07-22 12.9 15.0 11.4--- 7.3 3.3---- 3.6------------
1983-07-21 13.4 16.8 9.7--- 4.7 5.0---- 0.0------------
1983-07-20 16.8 23.2 12.6--- 6.7 4.3---- 1.0------------
1983-07-19 21.4 28.5 13.1--- 2.7 1.7---- 17.0------------
1983-07-18 19.6 27.9 12.6--- 2.7 1.0---- 0.0------------
1983-07-17 19.9 25.1 14.3--- 2.0 1.3---- 0.0------------
1983-07-16 19.0 26.9 11.6--- 1.3 1.7---- 0.0------------
1983-07-15 18.8 23.3 15.4--- 0.0 4.3---- 0.0------------
1983-07-14 17.4 20.2 15.5--- 7.3 0.7---- 5.8------------
1983-07-13 16.3 20.3 13.6--- 6.3 1.0---- 39.0------------
1983-07-12 16.8 20.4 14.0--- 7.0 0.7---- 3.5------------
1983-07-11 19.0 23.2 15.5--- 7.0 0.3---- 11.2------------
1983-07-10 20.6 26.6 13.8--- 2.0 2.0---- 0.8------------
1983-07-09 19.5 26.2 11.2--- 3.7 1.3---- 0.0------------
1983-07-08 18.6 25.3 10.1--- 0.0 1.3---- 0.0------------
1983-07-07 19.5 25.9 12.1--- 0.0 1.3---- 0.0------------
1983-07-06 20.1 26.2 12.1--- 0.0 0.3---- 0.0------------
1983-07-05 18.8 25.8 11.5--- 1.7 1.3---- 0.0------------
1983-07-04 17.9 25.2 10.2--- 0.0 1.7---- 0.0------------
1983-07-03 17.8 22.4 14.4--- 2.0 3.0---- 0.0------------
1983-07-02 18.3 22.0 14.5--- 6.7 0.3---- 12.8------------
1983-07-01 18.6 26.4 10.8--- 2.7 1.0---- 0.0------------
1983-06-30 15.5 22.0 7.0--- 2.0 1.3---- 0.0------------
1983-06-29 15.3 19.9 12.6--- 6.3 0.3---- 0.0------------
1983-06-28 17.4 20.5 15.5--- 7.0 2.3---- 22.5------------
1983-06-27 19.6 25.7 12.1--- 3.7 2.0---- 0.1------------
1983-06-26 17.6 22.4 15.0--- 5.7 0.7---- 16.7------------
1983-06-25 20.4 25.7 12.1--- 0.0 3.7---- 0.0------------
1983-06-24 16.2 25.0 6.1--- 0.0 2.0---- 0.0------------
1983-06-23 14.9 20.0 5.8--- 0.0 1.7---- 0.0------------
1983-06-22 15.2 20.8 11.2--- 0.0 3.3---- 0.0------------
1983-06-21 17.9 23.5 12.8--- 4.7 0.7---- 0.0------------
1983-06-20 17.8 22.0 15.5--- 6.7 3.0---- 0.1------------
1983-06-19 16.6 21.5 11.8--- 7.3 4.3---- 65.2------------
1983-06-18 12.4 13.1 11.1--- 8.0 3.0---- 27.5------------
1983-06-17 11.9 15.9 10.1--- 7.7 3.7---- 9.2------------
1983-06-16 11.5 15.7 10.3--- 8.0 5.0---- 7.9------------
399.9 ms

 

Źródłem pochodzenia danych jest Instytut Meteorologii i Gospodarki Wodnej – Państwowy Instytut Badawczy. Dane Instytutu Meteorologii i Gospodarki Wodnej – Państwowego Instytutu Badawczego zostały przetworzone.

Dane źródłowe można odnaleźć na stronie https://dane.imgw.pl